createdAt,value
2019-03-12T00:02:00.230Z,2.50
2019-03-12T00:04:30.725Z,2.70
2019-03-12T00:07:03.558Z,2.30
2019-03-12T00:09:34.568Z,2.23
2019-03-12T00:12:05.070Z,2.90
2019-03-12T00:14:35.479Z,2.67
2019-03-12T00:17:06.086Z,2.93
2019-03-12T00:19:37.422Z,2.37
2019-03-12T00:22:07.966Z,2.80
2019-03-12T00:24:39.674Z,2.50
2019-03-12T00:27:10.198Z,2.87
2019-03-12T00:29:41.129Z,3.60
2019-03-12T00:32:11.757Z,2.83
2019-03-12T00:34:44.927Z,2.70
2019-03-12T00:37:15.390Z,2.50
2019-03-12T00:39:45.817Z,2.57
2019-03-12T00:42:17.306Z,2.20
2019-03-12T00:44:47.682Z,3.33
2019-03-12T00:47:19.720Z,2.93
2019-03-12T00:49:50.496Z,3.20
2019-03-12T00:52:20.832Z,2.97
2019-03-12T00:54:51.316Z,3.60
2019-03-12T00:57:21.624Z,3.50
2019-03-12T00:59:51.990Z,3.40
2019-03-12T01:02:22.516Z,2.87
2019-03-12T01:04:52.961Z,3.40
2019-03-12T01:07:23.627Z,2.87
2019-03-12T01:09:54.049Z,3.00
2019-03-12T01:12:24.456Z,3.10
2019-03-12T01:14:56.405Z,3.10
2019-03-12T01:17:26.867Z,3.13
2019-03-12T01:19:57.705Z,3.30
2019-03-12T01:22:28.108Z,3.90
2019-03-12T01:24:58.879Z,3.07
2019-03-12T01:27:29.857Z,3.73
2019-03-12T01:30:00.465Z,3.77
2019-03-12T01:32:30.909Z,3.60
2019-03-12T01:35:01.236Z,3.70
2019-03-12T01:37:31.683Z,4.07
2019-03-12T01:40:03.789Z,3.63
2019-03-12T01:42:34.359Z,3.40
2019-03-12T01:45:07.123Z,3.43
2019-03-12T01:47:38.588Z,3.80
2019-03-12T01:50:09.839Z,3.60
2019-03-12T01:52:41.009Z,3.77
2019-03-12T01:55:11.987Z,4.33
2019-03-12T01:57:42.435Z,4.03
2019-03-12T02:00:14.681Z,4.13
2019-03-12T02:02:45.404Z,4.03
2019-03-12T02:05:16.190Z,4.40
2019-03-12T02:07:46.768Z,4.17
2019-03-12T02:10:19.270Z,3.63
2019-03-12T02:12:49.865Z,5.60
2019-03-12T02:15:20.740Z,4.33
2019-03-12T02:17:52.495Z,4.20
2019-03-12T02:20:22.998Z,3.87
2019-03-12T02:22:53.777Z,3.43
2019-03-12T02:25:24.155Z,4.40
2019-03-12T02:27:54.636Z,4.17
2019-03-12T02:30:25.578Z,3.90
2019-03-12T02:32:56.073Z,3.47
2019-03-12T02:35:26.379Z,3.23
2019-03-12T02:37:56.794Z,3.33
2019-03-12T02:40:28.649Z,3.63
2019-03-12T02:42:59.230Z,3.47
2019-03-12T02:45:29.674Z,3.70
2019-03-12T02:48:00.221Z,3.73
2019-03-12T02:50:30.518Z,4.30
2019-03-12T02:53:04.234Z,3.73
2019-03-12T02:55:35.043Z,3.83
2019-03-12T02:58:05.621Z,3.77
2019-03-12T03:00:39.049Z,3.60
2019-03-12T03:03:09.479Z,3.40
2019-03-12T03:05:51.124Z,3.43
2019-03-12T03:08:24.949Z,4.17
2019-03-12T03:10:55.560Z,3.60
2019-03-12T03:13:26.301Z,3.30
2019-03-12T03:15:56.820Z,3.53
2019-03-12T03:18:27.367Z,3.40
2019-03-12T03:20:57.749Z,3.57
2019-03-12T03:23:28.374Z,3.07
2019-03-12T03:25:58.994Z,3.27
2019-03-12T03:28:29.716Z,2.90
2019-03-12T03:31:00.331Z,3.63
2019-03-12T03:33:30.712Z,3.03
2019-03-12T03:36:01.176Z,3.47
2019-03-12T03:38:31.740Z,2.80
2019-03-12T03:41:03.039Z,4.10
2019-03-12T03:43:33.582Z,3.53
2019-03-12T03:46:03.959Z,3.77
2019-03-12T03:48:34.386Z,3.23
2019-03-12T03:51:04.816Z,3.70
2019-03-12T03:53:35.813Z,4.43
2019-03-12T03:56:06.145Z,3.73
2019-03-12T03:58:36.592Z,3.30
2019-03-12T04:01:07.125Z,3.73
2019-03-12T04:03:37.755Z,2.87
2019-03-12T04:06:08.495Z,3.23
2019-03-12T04:08:42.565Z,3.43
2019-03-12T04:11:13.015Z,2.83
2019-03-12T04:13:43.638Z,3.43
2019-03-12T04:16:14.133Z,3.20
2019-03-12T04:18:44.632Z,3.50
2019-03-12T04:21:15.133Z,3.80
2019-03-12T04:23:47.883Z,3.20
2019-03-12T04:26:18.307Z,3.50
2019-03-12T04:28:48.882Z,3.83
2019-03-12T04:31:19.514Z,2.87
2019-03-12T04:34:40.052Z,3.50
2019-03-12T04:37:10.557Z,3.80
2019-03-12T04:39:41.003Z,4.40
2019-03-12T04:42:11.537Z,5.73
2019-03-12T04:44:44.688Z,6.00
2019-03-12T04:47:15.452Z,7.47
2019-03-12T04:49:46.311Z,7.87
2019-03-12T04:52:16.764Z,7.77
2019-03-12T04:54:47.282Z,7.80
2019-03-12T04:57:17.549Z,8.40
2019-03-12T04:59:48.027Z,8.27
2019-03-12T05:02:18.413Z,9.73
2019-03-12T05:04:49.909Z,12.67
2019-03-12T05:07:20.210Z,12.57
2019-03-12T05:09:50.526Z,13.30
2019-03-12T05:12:20.729Z,14.23
2019-03-12T05:14:51.186Z,12.90
2019-03-12T05:17:29.127Z,12.13
2019-03-12T05:19:59.277Z,9.50
2019-03-12T05:22:29.562Z,11.40
2019-03-12T05:24:59.740Z,14.30
2019-03-12T05:27:29.881Z,13.93
2019-03-12T05:29:59.958Z,12.60
2019-03-12T05:32:30.082Z,20.00
2019-03-12T05:35:00.442Z,26.10
2019-03-12T05:37:31.106Z,29.60
2019-03-12T05:40:01.961Z,6.17
2019-03-12T05:42:32.432Z,4.77
2019-03-12T05:45:03.153Z,3.87
2019-03-12T05:47:35.044Z,10.40
2019-03-12T05:50:05.829Z,24.83
2019-03-12T05:52:36.236Z,33.20
2019-03-12T05:55:07.015Z,57.37
2019-03-12T05:57:40.712Z,69.63
2019-03-12T06:00:12.802Z,58.40
2019-03-12T06:02:43.540Z,54.63
2019-03-12T06:05:14.550Z,52.43
2019-03-12T06:07:45.648Z,30.67
2019-03-12T06:10:16.582Z,17.73
2019-03-12T06:12:47.454Z,19.27
2019-03-12T06:15:18.291Z,23.73
2019-03-12T06:17:49.317Z,24.23
2019-03-12T06:20:22.806Z,17.77
2019-03-12T06:22:54.027Z,14.13
2019-03-12T06:25:24.783Z,7.93
2019-03-12T06:27:56.008Z,10.90
2019-03-12T06:30:29.406Z,7.50
2019-03-12T06:33:10.139Z,7.57
2019-03-12T06:35:58.350Z,8.63
2019-03-12T06:38:36.650Z,13.70
2019-03-12T06:41:26.804Z,31.60
2019-03-12T06:44:10.294Z,20.80
2019-03-12T06:47:00.452Z,8.17
2019-03-12T06:49:48.754Z,7.70
2019-03-12T06:52:47.576Z,10.60
2019-03-12T06:55:25.296Z,10.13
2019-03-12T06:58:21.068Z,20.93
2019-03-12T07:01:25.872Z,9.87
2019-03-12T07:04:14.038Z,8.70
2019-03-12T07:07:02.338Z,7.17
2019-03-12T07:09:54.093Z,6.50
2019-03-12T07:12:41.798Z,6.60
2019-03-12T07:15:22.432Z,7.70
2019-03-12T07:18:01.984Z,6.60
2019-03-12T07:20:57.781Z,7.50
2019-03-12T07:23:56.924Z,8.73
2019-03-12T07:26:47.996Z,8.20
2019-03-12T07:29:28.320Z,8.87
2019-03-12T07:32:10.685Z,8.70
2019-03-12T07:34:49.803Z,8.60
2019-03-12T07:37:26.860Z,8.13
2019-03-12T07:40:19.960Z,7.97
2019-03-12T07:43:08.194Z,7.47
2019-03-12T07:45:58.350Z,7.30
2019-03-12T07:48:56.980Z,6.03
2019-03-12T07:51:50.738Z,6.33
2019-03-12T07:54:35.456Z,5.80
2019-03-12T07:57:24.452Z,5.40
2019-03-12T08:00:10.252Z,5.40
2019-03-12T08:02:48.637Z,5.30
2019-03-12T08:05:32.980Z,5.33
2019-03-12T08:08:12.724Z,4.47
2019-03-12T08:11:09.377Z,5.20
2019-03-12T08:13:57.555Z,4.20
2019-03-12T08:16:49.173Z,3.87
2019-03-12T08:19:37.174Z,3.67
2019-03-12T08:22:31.964Z,3.17
2019-03-12T08:25:10.537Z,3.57
2019-03-12T08:27:55.659Z,4.00
2019-03-12T08:30:41.251Z,2.57
2019-03-12T08:33:29.418Z,3.37
2019-03-12T08:36:35.309Z,3.17
2019-03-12T08:39:12.674Z,3.37
2019-03-12T08:41:52.572Z,3.60
2019-03-12T08:44:45.681Z,3.90
2019-03-12T08:47:34.374Z,3.20
2019-03-12T08:50:34.261Z,3.73
2019-03-12T08:53:26.737Z,3.57
2019-03-12T08:56:14.435Z,3.07
2019-03-12T08:59:09.884Z,3.57
2019-03-12T09:01:51.039Z,3.43
2019-03-12T09:04:40.646Z,3.00
2019-03-12T09:07:27.461Z,3.90
2019-03-12T09:10:19.617Z,3.60
2019-03-12T09:12:56.591Z,3.33
2019-03-12T09:15:44.503Z,3.30
2019-03-12T09:18:34.037Z,3.10
2019-03-12T09:21:10.173Z,3.30
2019-03-12T09:24:09.322Z,3.27
2019-03-12T09:26:57.219Z,3.57
2019-03-12T09:29:52.424Z,3.40
2019-03-12T09:32:40.131Z,3.43
2019-03-12T09:35:28.623Z,3.23
2019-03-12T09:38:22.635Z,3.60
2019-03-12T09:41:07.577Z,3.00
2019-03-12T09:43:55.469Z,3.30
2019-03-12T09:46:43.906Z,2.80
2019-03-12T09:49:32.475Z,3.80
2019-03-12T09:52:07.832Z,3.37
2019-03-12T09:55:00.757Z,3.13
2019-03-12T09:57:50.242Z,3.17
2019-03-12T10:00:33.630Z,2.90
2019-03-12T10:03:42.738Z,3.50
2019-03-12T10:06:38.279Z,4.57
2019-03-12T10:09:36.775Z,3.70
2019-03-12T10:12:18.205Z,3.97
2019-03-12T10:18:15.815Z,2.83
2019-03-12T10:20:54.948Z,3.97
2019-03-12T10:23:52.022Z,3.87
2019-03-12T10:26:40.024Z,3.60
2019-03-12T10:29:29.199Z,3.40
2019-03-12T10:32:16.703Z,4.00
2019-03-12T10:35:15.117Z,3.97
2019-03-12T10:38:13.589Z,3.30
2019-03-12T10:41:15.195Z,3.60
2019-03-12T10:43:55.893Z,3.70
2019-03-12T10:46:41.179Z,3.30
2019-03-12T10:49:11.757Z,3.63
2019-03-12T10:51:42.654Z,2.90
2019-03-12T10:54:13.375Z,3.43
2019-03-12T10:56:44.193Z,3.80
2019-03-12T10:59:15.196Z,3.47
2019-03-12T11:01:47.243Z,3.33
2019-03-12T11:04:17.920Z,3.27
2019-03-12T11:06:52.925Z,3.63
2019-03-12T11:09:23.650Z,3.13
2019-03-12T11:11:55.251Z,3.63
2019-03-12T11:14:26.186Z,3.80
2019-03-12T11:16:57.045Z,3.20
2019-03-12T11:19:27.705Z,2.97
2019-03-12T11:21:59.961Z,3.40
2019-03-12T11:24:31.192Z,3.30
2019-03-12T11:27:01.860Z,3.50
2019-03-12T11:29:32.736Z,3.40
2019-03-12T11:32:04.847Z,3.00
2019-03-12T11:34:38.352Z,3.87
2019-03-12T11:37:11.080Z,3.40
2019-03-12T11:39:42.467Z,2.83
2019-03-12T11:42:13.670Z,3.63
2019-03-12T11:44:45.163Z,3.00
2019-03-12T11:47:15.734Z,2.90
2019-03-12T11:49:49.450Z,2.50
2019-03-12T11:52:20.682Z,3.13
2019-03-12T11:54:52.039Z,2.80
2019-03-12T11:57:22.901Z,2.77
2019-03-12T11:59:54.464Z,2.57
2019-03-12T12:02:25.780Z,2.93
2019-03-12T12:04:56.767Z,2.33
2019-03-12T12:07:27.810Z,2.60
2019-03-12T12:09:59.312Z,2.77
2019-03-12T12:12:35.660Z,2.77
2019-03-12T12:15:06.961Z,2.40
2019-03-12T12:17:37.582Z,3.20
2019-03-12T12:20:09.070Z,2.53
2019-03-12T12:22:39.856Z,3.30
2019-03-12T12:25:11.616Z,2.73
2019-03-12T12:27:42.160Z,2.03
2019-03-12T12:30:14.986Z,1.90
2019-03-12T12:32:46.108Z,2.23
2019-03-12T12:35:17.169Z,2.10
2019-03-12T12:37:48.273Z,2.20
2019-03-12T12:40:21.986Z,1.73
2019-03-12T12:42:52.768Z,2.23
2019-03-12T12:45:24.588Z,2.30
2019-03-12T12:47:55.182Z,1.93
2019-03-12T12:50:25.679Z,2.50
2019-03-12T12:52:56.480Z,2.00
2019-03-12T12:55:26.930Z,1.53
2019-03-12T12:57:57.645Z,2.57
2019-03-12T13:00:28.807Z,2.20
2019-03-12T13:02:59.990Z,2.00
2019-03-12T13:05:30.440Z,2.50
2019-03-12T13:08:01.008Z,2.23
2019-03-12T13:10:31.637Z,2.10
2019-03-12T13:13:02.238Z,2.73
2019-03-12T13:15:32.738Z,1.93
2019-03-12T13:18:03.494Z,2.03
2019-03-12T13:20:34.138Z,2.10
2019-03-12T13:23:04.889Z,2.00
2019-03-12T13:25:35.336Z,2.70
2019-03-12T13:28:05.871Z,2.23
2019-03-12T13:30:36.688Z,2.60
2019-03-12T13:33:07.688Z,1.83
2019-03-12T13:35:39.358Z,1.80
2019-03-12T13:38:10.423Z,2.67
2019-03-12T13:40:41.686Z,2.40
2019-03-12T13:43:12.696Z,2.57
2019-03-12T13:45:46.210Z,1.90
2019-03-12T13:48:17.205Z,2.20
2019-03-12T13:50:47.881Z,2.27
2019-03-12T13:53:18.711Z,2.10
2019-03-12T13:55:49.686Z,1.80
2019-03-12T13:58:20.446Z,2.30
2019-03-12T14:00:51.214Z,2.30
2019-03-12T14:03:21.993Z,1.80
2019-03-12T14:05:55.102Z,2.20
2019-03-12T14:08:25.546Z,2.33
2019-03-12T14:10:56.293Z,2.00
2019-03-12T14:13:27.153Z,2.03
2019-03-12T14:15:57.757Z,1.83
2019-03-12T14:18:29.340Z,2.73
2019-03-12T14:21:06.545Z,2.93
2019-03-12T14:24:06.900Z,2.07
2019-03-12T14:26:38.074Z,2.40
2019-03-12T14:29:08.874Z,2.30
2019-03-12T14:31:40.152Z,2.63
2019-03-12T14:34:11.282Z,2.23
2019-03-12T14:36:42.402Z,2.03
2019-03-12T14:39:12.933Z,1.90
2019-03-12T14:41:43.899Z,2.43
2019-03-12T14:44:14.370Z,2.10
2019-03-12T14:46:45.246Z,2.77
2019-03-12T14:49:16.176Z,2.10
2019-03-12T14:52:23.625Z,2.30
2019-03-12T14:54:54.278Z,2.30
2019-03-12T14:57:25.192Z,1.90
2019-03-12T14:59:56.127Z,2.23
2019-03-12T15:02:28.588Z,2.43
2019-03-12T15:05:00.395Z,2.27
2019-03-12T15:07:31.182Z,2.60
2019-03-12T15:10:02.090Z,2.40
2019-03-12T15:12:32.632Z,2.17
2019-03-12T15:15:03.721Z,2.70
2019-03-12T15:17:34.168Z,2.27
2019-03-12T15:20:05.422Z,2.30
2019-03-12T15:22:36.647Z,2.00
2019-03-12T15:25:08.105Z,2.73
2019-03-12T15:27:39.321Z,2.00
2019-03-12T15:30:14.444Z,2.43
2019-03-12T15:32:45.554Z,1.80
2019-03-12T15:35:16.250Z,2.27
2019-03-12T15:37:49.323Z,1.53
2019-03-12T15:40:20.369Z,1.97
2019-03-12T15:42:54.175Z,2.87
2019-03-12T15:45:24.914Z,2.30
2019-03-12T15:47:55.625Z,2.10
2019-03-12T15:50:26.911Z,3.00
2019-03-12T15:52:59.531Z,2.43
2019-03-12T15:55:30.040Z,2.23
2019-03-12T15:58:00.425Z,1.77
2019-03-12T16:00:31.769Z,2.67
2019-03-12T16:03:02.869Z,2.27
2019-03-12T16:05:34.265Z,2.03
2019-03-12T16:08:05.469Z,1.57
2019-03-12T16:10:36.803Z,2.10
2019-03-12T16:13:08.051Z,1.97
2019-03-12T16:15:39.315Z,2.27
2019-03-12T16:18:14.530Z,1.93
2019-03-12T16:20:44.914Z,1.80
2019-03-12T16:23:16.268Z,1.77
2019-03-12T16:25:47.176Z,1.60
2019-03-12T16:28:18.156Z,2.10
2019-03-12T16:30:49.306Z,3.03
2019-03-12T16:33:20.317Z,2.30
2019-03-12T16:35:51.498Z,1.93
2019-03-12T16:38:22.572Z,2.23
2019-03-12T16:40:55.584Z,2.57
2019-03-12T16:43:26.761Z,1.83
2019-03-12T16:45:57.821Z,2.07
2019-03-12T16:48:31.971Z,1.90
2019-03-12T16:51:02.927Z,2.00
2019-03-12T16:53:36.763Z,2.10
2019-03-12T16:56:08.450Z,2.17
2019-03-12T16:58:39.191Z,2.60
2019-03-12T17:01:11.753Z,2.57
2019-03-12T17:03:45.285Z,2.80
2019-03-12T17:06:16.364Z,1.67
2019-03-12T17:08:47.127Z,2.60
2019-03-12T17:11:18.777Z,2.83
2019-03-12T17:13:49.516Z,2.03
2019-03-12T17:16:19.775Z,2.50
2019-03-12T17:18:49.863Z,2.20
2019-03-12T17:21:20.029Z,2.10
2019-03-12T17:23:50.143Z,1.87
2019-03-12T17:26:20.377Z,1.70
2019-03-12T17:28:50.666Z,1.73
2019-03-12T17:31:20.902Z,1.43
2019-03-12T17:33:51.468Z,1.53
2019-03-12T17:36:21.691Z,1.43
2019-03-12T17:38:51.932Z,2.00
2019-03-12T17:41:23.164Z,2.20
2019-03-12T17:43:53.692Z,2.00
2019-03-12T17:46:25.401Z,1.97
2019-03-12T17:48:55.803Z,1.93
2019-03-12T17:51:26.131Z,1.70
2019-03-12T17:53:58.191Z,2.00
2019-03-12T17:56:29.415Z,1.47
2019-03-12T17:58:59.637Z,2.07
2019-03-12T18:01:31.115Z,1.73
2019-03-12T18:04:01.360Z,1.93
2019-03-12T18:06:34.881Z,1.77
2019-03-12T18:09:08.398Z,1.30
2019-03-12T18:11:37.379Z,1.17
2019-03-12T18:14:08.081Z,1.90
2019-03-12T18:16:41.311Z,2.30
2019-03-12T18:19:12.199Z,2.27
2019-03-12T18:21:42.994Z,1.57
2019-03-12T18:24:13.389Z,1.70
2019-03-12T18:26:43.915Z,1.80
2019-03-12T18:29:14.373Z,1.97
2019-03-12T18:31:44.936Z,1.83
2019-03-12T18:34:15.839Z,1.67
2019-03-12T18:36:48.563Z,1.27
2019-03-12T18:39:19.363Z,1.30
2019-03-12T18:42:02.698Z,1.63
2019-03-12T18:44:33.254Z,1.30
2019-03-12T18:47:06.081Z,1.40
2019-03-12T18:49:36.494Z,1.23
2019-03-12T18:52:07.096Z,1.70
2019-03-12T18:54:38.835Z,1.80
2019-03-12T18:57:11.974Z,1.60
2019-03-12T18:59:42.615Z,1.37
2019-03-12T19:02:12.989Z,1.53
2019-03-12T19:04:44.568Z,1.27
2019-03-12T19:07:18.320Z,1.30
2019-03-12T19:09:47.839Z,1.10
2019-03-12T19:12:18.610Z,1.57
2019-03-12T19:14:49.273Z,1.50
2019-03-12T19:17:19.996Z,1.33
2019-03-12T19:19:50.391Z,1.60
2019-03-12T19:22:22.067Z,1.90
2019-03-12T19:24:52.874Z,1.13
2019-03-12T19:27:23.448Z,1.60
2019-03-12T19:29:54.020Z,1.37
2019-03-12T19:32:37.519Z,1.40
2019-03-12T19:35:11.194Z,1.37
2019-03-12T19:37:41.747Z,1.20
2019-03-12T19:40:15.317Z,1.53
2019-03-12T19:43:13.474Z,1.40
2019-03-12T19:45:44.338Z,1.27
2019-03-12T19:48:14.954Z,2.00
2019-03-12T19:50:45.605Z,1.60
2019-03-12T19:53:16.050Z,1.37
2019-03-12T19:55:48.447Z,1.30
2019-03-12T19:58:20.182Z,1.47
2019-03-12T20:00:51.351Z,1.40
2019-03-12T20:03:22.034Z,1.43
2019-03-12T20:05:53.618Z,1.47
2019-03-12T20:08:24.388Z,1.13
2019-03-12T20:11:49.386Z,1.40
2019-03-12T20:15:15.767Z,1.10
2019-03-12T20:18:22.729Z,1.80
2019-03-12T20:21:29.524Z,1.10
2019-03-12T20:24:49.114Z,1.60
2019-03-12T20:28:02.389Z,1.30
2019-03-12T20:31:29.354Z,1.50
2019-03-12T20:34:54.807Z,1.57
2019-03-12T20:38:02.934Z,1.70
2019-03-12T20:41:17.771Z,1.40
2019-03-12T20:44:29.230Z,1.20
2019-03-12T20:47:52.669Z,1.50
2019-03-12T20:51:03.399Z,2.03
2019-03-12T20:54:10.852Z,1.17
2019-03-12T20:57:33.894Z,1.50
2019-03-12T21:00:43.888Z,1.10
2019-03-12T21:03:40.499Z,1.47
2019-03-12T21:07:22.314Z,1.40
2019-03-12T21:10:28.260Z,1.87
2019-03-12T21:13:45.950Z,1.97
2019-03-12T21:16:59.977Z,1.07
2019-03-12T21:20:32.560Z,1.07
2019-03-12T21:23:42.263Z,1.00
2019-03-12T21:26:43.274Z,1.60
2019-03-12T21:29:31.440Z,1.27
2019-03-12T21:32:04.755Z,1.20
2019-03-12T21:34:35.258Z,1.07
2019-03-12T21:37:06.187Z,1.10
2019-03-12T21:39:37.211Z,1.30
2019-03-12T21:42:10.084Z,1.20
2019-03-12T21:44:41.598Z,1.30
2019-03-12T21:47:11.955Z,1.40
2019-03-12T21:49:44.645Z,1.40
2019-03-12T21:52:15.108Z,1.00
2019-03-12T21:54:45.468Z,1.27
2019-03-12T21:57:16.029Z,1.20
2019-03-12T21:59:49.038Z,1.63
2019-03-12T22:02:19.530Z,1.17
2019-03-12T22:04:49.930Z,1.20
2019-03-12T22:07:20.460Z,1.10
2019-03-12T22:09:50.758Z,1.23
2019-03-12T22:12:21.017Z,1.20
2019-03-12T22:14:51.454Z,1.00
2019-03-12T22:17:23.392Z,1.47
2019-03-12T22:19:53.797Z,1.17
2019-03-12T22:22:40.799Z,0.97
2019-03-12T22:25:12.666Z,2.40
2019-03-12T22:27:43.278Z,1.90
2019-03-12T22:30:16.313Z,1.80
2019-03-12T22:32:46.730Z,1.90
2019-03-12T22:35:17.298Z,3.87
2019-03-12T22:37:47.654Z,2.57
2019-03-12T22:40:19.352Z,4.57
2019-03-12T22:42:50.018Z,3.97
2019-03-12T22:45:20.619Z,4.23
2019-03-12T22:47:51.384Z,4.70
2019-03-12T22:50:21.652Z,4.20
2019-03-12T22:52:53.174Z,4.47
2019-03-12T22:55:23.927Z,3.90
2019-03-12T22:57:54.542Z,4.63
2019-03-12T23:00:26.434Z,1.57
2019-03-12T23:02:56.858Z,2.10
2019-03-12T23:05:27.297Z,2.00
2019-03-12T23:07:57.574Z,1.80
2019-03-12T23:10:29.192Z,1.57
2019-03-12T23:12:59.876Z,1.63
2019-03-12T23:15:30.239Z,1.30
2019-03-12T23:18:00.442Z,1.40
2019-03-12T23:20:30.996Z,1.70
2019-03-12T23:23:01.415Z,1.30
2019-03-12T23:25:31.799Z,2.20
2019-03-12T23:28:02.189Z,1.87
2019-03-12T23:30:32.767Z,2.27
2019-03-12T23:33:03.040Z,2.70
2019-03-12T23:35:34.486Z,4.73
2019-03-12T23:38:05.010Z,3.30
2019-03-12T23:40:35.593Z,1.77
2019-03-12T23:43:05.926Z,1.00
2019-03-12T23:45:36.249Z,1.57
2019-03-12T23:48:06.902Z,1.27
2019-03-12T23:50:37.783Z,0.93
2019-03-12T23:53:08.941Z,0.57
2019-03-12T23:55:39.730Z,0.37
2019-03-12T23:58:10.062Z,0.40
